Latest Weather Observations for Darwin Harbour

IDD60901

Issued at 6:41 pm CST Tuesday 26 January 2021 (issued every 10 minutes, with the page automatically refreshed every 10 minutes)

About weather observations | Map of Darwin area stations | Latest observations for Darwin area | Other Formats
Station Details ID: 014072 Name: DARWIN NTC AWS Lat: -12.47 Lon: 130.85 Height: 0.0 m
Data from the previous 72 hours. | See also: Recent months for locations in Northern Territory

* Apparent Temperature, Dew Point, Relative Humidity, Delta-T and Rain since 9am use data from Darwin Airport, as humidity and rainfall observations are not available for Darwin Harbour.

Date/Time
CST
Temp
°C
App
Temp
°C
Dew
Point
°C
Rel
Hum
%
Delta-T
°C
Wind Press
QNH
hPa
Press
MSL
hPa
Rain since
9am
mm
Dir  Spd
km/h
Gust
km/h
Spd
kts
Gust
kts
26/06:30pm 26.4 28.7 24.1 87 1.6 SW 19 22 10 12 1001.1 1001.0 4.6
26/06:00pm 25.8 27.3 24.3 91 1.0 SW 24 28 13 15 1001.1 1001.0 2.4
26/05:30pm 26.1 25.0 24.2 89 1.3 SW 37 48 20 26 1000.9 1000.8 2.0
26/05:23pm 27.4 - - - - SW 20 35 11 19 1000.8 1000.7 -
26/05:00pm 27.3 32.2 23.6 80 2.5 WSW 4 6 2 3 1000.6 1000.5 2.0
26/04:30pm 26.5 29.4 23.9 85 1.8 SW 15 20 8 11 1000.9 1000.8 2.0
26/04:00pm 26.0 25.0 23.7 87 1.6 SW 35 44 19 24 1000.6 1000.5 0.6
26/03:49pm 27.1 - - - - W 20 41 11 22 1000.7 1000.6 -
26/03:30pm 29.1 32.8 23.2 70 4.1 W 9 13 5 7 1000.5 1000.4 0.4
26/03:00pm 29.0 30.8 22.5 68 4.4 WSW 17 20 9 11 1001.0 1000.9 0.4
26/02:30pm 28.9 29.9 22.1 66 4.6 WSW 20 28 11 15 1001.3 1001.2 0.4
26/02:00pm 28.8 30.1 22.4 68 4.3 WSW 19 26 10 14 1001.9 1001.8 0.4
26/01:30pm 28.2 28.6 22.5 71 3.9 SW 24 30 13 16 1002.0 1001.9 0.4
26/01:00pm 28.0 27.7 23.9 78 2.8 SW 32 37 17 20 1002.5 1002.4 0.4
26/12:30pm 28.0 28.9 23.3 75 3.2 WSW 24 35 13 19 1002.6 1002.5 0.0
26/12:00pm 28.2 30.3 24.1 78 2.8 WSW 20 32 11 17 1002.6 1002.5 0.0
26/11:30am 28.0 30.0 24.0 79 2.8 WSW 20 30 11 16 1002.8 1002.7 0.0
26/11:00am 27.5 29.7 23.9 81 2.5 WSW 19 30 10 16 1003.1 1003.0 0.0
26/10:30am 27.3 29.2 23.5 80 2.6 WSW 19 28 10 15 1003.2 1003.1 0.0
26/10:00am 27.5 29.6 24.1 82 2.3 WSW 20 28 11 15 1003.0 1002.9 0.0
26/09:30am 27.0 29.2 23.9 83 2.1 WSW 19 24 10 13 1002.9 1002.8 0.0
26/09:00am 26.1 27.8 24.0 88 1.4 SW 22 30 12 16 1003.1 1003.0 58.6
26/08:30am 26.4 27.5 24.4 89 1.4 SSW 26 32 14 17 1003.5 1003.4 58.6
26/08:00am 27.7 31.1 24.1 81 2.5 WSW 13 17 7 9 1003.3 1003.2 58.6
26/07:30am 26.9 31.3 23.8 83 2.1 WNW 7 13 4 7 1003.0 1002.9 58.6
26/07:00am 27.4 30.7 23.8 81 2.5 W 13 20 7 11 1002.6 1002.5 58.6
26/06:30am 27.4 30.3 23.9 81 2.4 W 15 22 8 12 1002.6 1002.5 58.6
26/06:00am 27.6 30.3 24.2 82 2.4 W 17 22 9 12 1002.5 1002.4 58.6
26/05:30am 27.5 30.4 23.9 81 2.5 W 15 22 8 12 1002.4 1002.3 58.6
26/05:00am 26.9 31.1 24.1 85 1.9 WNW 9 13 5 7 1002.2 1002.1 58.6
26/04:30am 26.8 30.5 23.9 84 2.0 W 11 15 6 8 1002.1 1002.0 58.6
26/04:00am 26.6 29.5 23.8 84 1.9 W 15 20 8 11 1002.0 1001.9 58.6
26/03:30am 26.4 29.4 24.0 87 1.7 W 15 22 8 12 1002.2 1002.1 58.4
26/03:00am 26.3 29.2 23.8 86 1.7 W 15 22 8 12 1002.0 1001.9 58.4
26/02:30am 25.9 28.5 24.0 89 1.3 WSW 17 22 9 12 1001.9 1001.8 58.4
26/02:00am 25.6 28.5 23.8 90 1.2 WSW 15 20 8 11 1002.3 1002.2 58.4
26/01:30am 25.6 27.9 24.1 91 1.0 WSW 19 22 10 12 1003.1 1003.0 58.4
26/01:00am 25.8 27.4 23.9 89 1.3 WSW 22 28 12 15 1003.6 1003.5 58.2
26/12:30am 25.7 26.1 23.8 89 1.3 WSW 28 35 15 19 1004.2 1004.1 57.0
26/12:00am 25.8 26.7 23.9 89 1.3 WSW 26 37 14 20 1004.9 1004.8 54.8
 
Date/Time
CST
Temp
°C
App
Temp
°C
Dew
Point
°C
Rel
Hum
%
Delta-T
°C
Wind Press
QNH
hPa
Press
MSL
hPa
Rain since
9am
mm
Dir  Spd
km/h
Gust
km/h
Spd
kts
Gust
kts
25/11:30pm 25.7 25.6 24.2 91 1.0 W 32 43 17 23 1005.2 1005.1 50.8
25/11:00pm 25.4 26.0 24.1 92 0.9 W 28 39 15 21 1005.2 1005.1 45.0
25/10:30pm 25.7 26.4 23.6 88 1.4 W 26 35 14 19 1005.1 1005.0 38.2
25/10:00pm 25.9 27.0 24.3 91 1.1 W 26 35 14 19 1005.1 1005.0 34.8
25/09:30pm 25.6 26.1 23.9 90 1.2 W 28 35 15 19 1004.9 1004.8 30.8
25/09:00pm 25.8 27.1 24.1 90 1.2 WNW 24 33 13 18 1004.3 1004.2 28.0
25/08:30pm 24.9 28.1 24.3 96 0.4 WNW 15 26 8 14 1003.9 1003.8 17.8
25/08:00pm 25.0 26.0 24.8 99 0.1 WSW 28 35 15 19 1003.5 1003.4 15.6
25/07:55pm 25.6 - - - - W 32 44 17 24 1003.5 1003.4 -
25/07:46pm 26.9 - - - - WNW 26 44 14 24 1003.4 1003.3 -
25/07:30pm 27.1 30.0 24.5 86 1.8 NW 17 33 9 18 1003.0 1002.9 15.2
25/07:00pm 27.4 30.4 24.0 82 2.3 NW 15 26 8 14 1002.7 1002.6 15.2
25/06:30pm 27.3 30.7 24.7 86 1.8 WNW 15 24 8 13 1002.2 1002.1 15.2
25/06:00pm 27.2 30.0 24.3 84 2.0 WNW 17 20 9 11 1002.0 1001.9 15.2
25/05:30pm 27.2 29.7 24.4 85 1.9 WNW 19 24 10 13 1002.0 1001.9 15.2
25/05:00pm 26.8 29.5 24.2 86 1.8 W 17 22 9 12 1002.3 1002.2 15.2
25/04:30pm 26.5 30.1 24.4 88 1.5 W 13 22 7 12 1002.4 1002.3 14.8
25/04:00pm 26.2 28.4 23.9 87 1.6 WNW 19 26 10 14 1002.4 1002.3 8.6
25/03:30pm 25.3 28.2 24.4 95 0.6 WNW 17 26 9 14 1002.5 1002.4 5.6
25/03:00pm 25.5 28.3 25.0 97 0.3 W 19 32 10 17 1002.9 1002.8 5.2
25/02:30pm 26.8 29.8 24.7 88 1.5 NW 17 30 9 16 1003.0 1002.9 4.2
25/02:00pm 25.6 26.7 24.9 96 0.5 W 28 46 15 25 1003.4 1003.3 4.2
25/01:58pm 25.5 - - - - W 28 46 15 25 1003.4 1003.3 -
25/01:30pm 26.6 30.7 25.2 92 1.0 WSW 13 20 7 11 1003.3 1003.2 1.8
25/01:00pm 26.2 30.8 25.3 95 0.6 W 11 26 6 14 1003.8 1003.7 1.8
25/12:30pm 27.0 31.2 24.7 87 1.6 W 11 15 6 8 1004.1 1004.0 1.2
25/12:00pm 27.0 30.7 24.5 86 1.7 W 13 19 7 10 1004.1 1004.0 1.2
25/11:30am 26.8 29.7 23.9 84 2.0 W 15 20 8 11 1004.4 1004.3 1.2
25/11:00am 26.5 29.9 24.6 89 1.3 W 15 22 8 12 1004.9 1004.8 1.2
25/10:30am 26.0 28.1 23.8 88 1.5 WNW 19 24 10 13 1005.4 1005.3 1.2
25/10:00am 25.3 27.6 23.4 89 1.3 WNW 17 26 9 14 1005.9 1005.8 1.0
25/09:30am 24.7 26.5 23.3 92 1.0 WNW 19 28 10 15 1006.1 1006.0 0.4
25/09:00am 25.4 24.4 22.6 84 1.9 W 32 46 17 25 1006.1 1006.0 49.8
25/08:53am 25.8 - - - - WNW 22 41 12 22 1006.0 1005.9 -
25/08:30am 25.5 29.9 24.4 94 0.8 NNW 9 17 5 9 1006.1 1006.0 49.2
25/08:00am 25.0 29.1 23.9 94 0.8 NNW 9 17 5 9 1006.2 1006.1 48.2
25/07:30am 24.5 28.7 23.1 92 0.9 N 6 11 3 6 1005.4 1005.3 47.2
25/07:00am 24.1 28.1 22.8 92 0.9 NNW 6 11 3 6 1005.3 1005.2 45.8
25/06:30am 24.0 27.9 22.6 92 0.9 NW 6 11 3 6 1005.3 1005.2 43.6
25/06:00am 24.9 26.9 23.9 94 0.7 W 20 35 11 19 1005.0 1004.9 40.2
25/05:30am 25.0 28.6 23.7 92 0.9 N 11 17 6 9 1004.6 1004.5 38.6
25/05:00am 25.2 29.1 23.6 91 1.1 NNW 9 17 5 9 1004.1 1004.0 38.2
25/04:30am 25.5 28.9 23.3 88 1.5 SSW 11 15 6 8 1003.9 1003.8 38.0
25/04:00am 25.1 26.7 23.3 90 1.2 SSW 20 24 11 13 1004.0 1003.9 38.0
25/03:30am 24.9 24.2 24.1 95 0.6 SSW 35 41 19 22 1004.4 1004.3 34.8
25/03:15am 26.1 - - - - SSE 20 43 11 23 1004.4 1004.3 -
25/03:00am 25.7 30.2 24.0 90 1.2 ENE 7 15 4 8 1004.5 1004.4 33.4
25/02:30am 25.7 30.8 24.0 90 1.2 NE 4 9 2 5 1004.5 1004.4 33.0
25/02:00am 25.5 30.6 24.0 91 1.0 NE 4 9 2 5 1004.6 1004.5 32.6
25/01:30am 25.9 29.7 24.0 89 1.3 WSW 11 17 6 9 1005.2 1005.1 32.0
25/01:00am 25.4 30.8 23.9 91 1.0 SSW 2 7 1 4 1005.6 1005.5 30.8
25/12:30am 25.2 27.7 23.8 92 1.0 WNW 17 32 9 17 1006.2 1006.1 26.4
25/12:00am 26.3 30.6 23.3 83 2.0 SSW 6 9 3 5 1005.9 1005.8 25.2
 
Date/Time
CST
Temp
°C
App
Temp
°C
Dew
Point
°C
Rel
Hum
%
Delta-T
°C
Wind Press
QNH
hPa
Press
MSL
hPa
Rain since
9am
mm
Dir  Spd
km/h
Gust
km/h
Spd
kts
Gust
kts
24/11:30pm 25.7 28.6 23.2 86 1.7 WSW 13 22 7 12 1006.6 1006.5 25.0
24/11:00pm 24.7 26.8 23.1 91 1.1 NW 17 30 9 16 1007.2 1007.1 21.0
24/10:30pm 27.1 31.9 23.5 81 2.5 ENE 4 9 2 5 1006.8 1006.7 16.2
24/10:00pm 27.1 31.7 23.1 79 2.7 SW 4 6 2 3 1006.3 1006.2 16.2
24/09:30pm 27.2 31.1 23.0 78 2.9 SSW 7 11 4 6 1006.3 1006.2 16.2
24/09:00pm 26.4 28.4 23.0 81 2.3 WSW 17 22 9 12 1006.1 1006.0 16.0
24/08:30pm 28.4 31.1 24.1 77 3.0 W 17 35 9 19 1005.8 1005.7 15.6
24/08:00pm 28.7 31.3 24.0 76 3.3 W 17 26 9 14 1005.4 1005.3 12.8
24/07:30pm 29.0 33.2 24.8 78 2.9 W 11 15 6 8 1005.2 1005.1 10.8
24/07:00pm 28.6 32.0 25.3 82 2.3 W 17 22 9 12 1004.9 1004.8 10.6
24/06:30pm 29.1 32.6 24.2 75 3.4 W 13 20 7 11 1004.4 1004.3 10.6
24/06:00pm 29.1 31.7 23.9 73 3.6 W 17 22 9 12 1004.2 1004.1 10.6
24/05:30pm 28.9 31.4 24.7 78 2.9 W 20 28 11 15 1004.0 1003.9 10.6
24/05:00pm 28.4 30.1 24.6 80 2.6 WSW 24 30 13 16 1003.7 1003.6 10.6
24/04:30pm 29.3 31.0 24.7 76 3.2 W 24 32 13 17 1003.7 1003.6 10.4
24/04:00pm 29.3 29.9 24.7 76 3.2 W 30 41 16 22 1003.7 1003.6 10.4
24/03:48pm 29.6 - - - - W 19 41 10 22 1003.8 1003.7 -
24/03:30pm 28.4 31.8 24.0 77 3.0 W 13 17 7 9 1004.1 1004.0 9.4
24/03:00pm 25.4 24.3 24.7 96 0.5 WSW 39 56 21 30 1004.9 1004.8 1.0
24/02:51pm 27.1 - - - - W 30 54 16 29 1004.9 1004.8 -
24/02:30pm 29.4 30.5 24.4 74 3.5 WNW 26 32 14 17 1005.2 1005.1 0.0
24/02:00pm 29.3 30.3 24.7 76 3.2 W 28 37 15 20 1005.9 1005.8 0.0
24/01:30pm 29.3 30.5 24.5 75 3.4 W 26 35 14 19 1006.3 1006.2 0.0
24/01:00pm 28.9 30.7 24.8 78 2.9 W 24 33 13 18 1006.8 1006.7 0.0
24/12:30pm 27.4 27.3 24.6 85 1.9 WNW 33 43 18 23 1007.2 1007.1 0.0
24/12:00pm 28.9 29.6 24.9 79 2.8 WNW 30 37 16 20 1007.4 1007.3 0.0
24/11:30am 29.5 31.3 24.9 76 3.2 W 24 37 13 20 1007.6 1007.5 0.0
24/11:00am 29.2 30.5 24.1 74 3.5 W 24 33 13 18 1007.7 1007.6 0.0
24/10:30am 27.9 32.6 23.9 79 2.8 WSW 6 9 3 5 1008.0 1007.9 0.0
24/10:00am 27.5 31.8 24.3 83 2.2 W 9 11 5 6 1008.2 1008.1 0.0
24/09:30am 27.1 30.7 23.7 81 2.3 W 11 15 6 8 1008.7 1008.6 0.0
24/09:00am 27.0 31.3 24.2 85 1.9 W 9 15 5 8 1008.7 1008.6 35.8
24/08:30am 26.6 30.4 24.1 86 1.7 W 11 17 6 9 1008.2 1008.1 35.8
24/08:00am 26.2 29.0 23.6 85 1.8 W 15 20 8 11 1007.6 1007.5 35.8
24/07:30am 26.2 28.4 23.2 83 2.0 W 17 20 9 11 1007.1 1007.0 35.8
24/07:00am 25.9 27.6 23.1 84 1.9 W 19 24 10 13 1006.9 1006.8 35.8
24/06:30am 25.9 27.4 23.1 84 1.9 WSW 20 28 11 15 1006.9 1006.8 35.8
24/06:00am 25.8 25.8 23.8 89 1.4 WSW 30 43 16 23 1006.9 1006.8 35.8
24/05:30am 25.6 27.2 23.9 90 1.2 SW 22 28 12 15 1006.6 1006.5 35.8
24/05:00am 25.7 29.0 23.9 90 1.2 SW 13 19 7 10 1006.3 1006.2 35.6
24/04:30am 25.6 29.4 24.0 91 1.1 SW 11 17 6 9 1006.4 1006.3 35.4
24/04:00am 25.9 29.2 23.9 89 1.4 W 13 19 7 10 1006.4 1006.3 35.4
24/03:30am 25.7 27.6 23.8 89 1.3 WNW 20 26 11 14 1006.4 1006.3 35.0
24/03:00am 25.6 27.6 23.9 90 1.2 WNW 20 26 11 14 1006.8 1006.7 34.4
24/02:30am 24.6 25.9 23.4 93 0.8 WNW 22 32 12 17 1007.3 1007.2 32.8
24/02:00am 26.0 29.4 24.1 89 1.3 W 13 17 7 9 1007.8 1007.7 28.8
24/01:30am 26.3 30.6 24.2 88 1.5 W 9 13 5 7 1008.1 1008.0 28.6
24/01:00am 26.1 29.4 23.8 87 1.6 W 13 22 7 12 1008.6 1008.5 28.2
24/12:30am 26.3 29.8 23.6 85 1.8 W 11 17 6 9 1008.5 1008.4 26.6
24/12:00am 26.4 29.4 25.2 93 0.8 W 19 35 10 19 1008.8 1008.7 24.8
 
Date/Time
CST
Temp
°C
App
Temp
°C
Dew
Point
°C
Rel
Hum
%
Delta-T
°C
Wind Press
QNH
hPa
Press
MSL
hPa
Rain since
9am
mm
Dir  Spd
km/h
Gust
km/h
Spd
kts
Gust
kts
23/11:30pm 27.6 32.5 25.3 87 1.6 WSW 9 13 5 7 1008.9 1008.8 24.8
23/11:00pm 27.6 32.0 25.0 86 1.8 W 11 15 6 8 1008.7 1008.6 24.8
23/10:30pm 27.6 31.7 24.6 84 2.1 W 11 17 6 9 1008.2 1008.1 24.8
23/10:00pm 27.4 31.4 24.4 84 2.1 WNW 11 17 6 9 1008.1 1008.0 24.8
23/09:30pm 26.6 31.2 24.8 90 1.3 NW 9 15 5 8 1008.2 1008.1 24.8
23/09:00pm 26.6 31.5 24.6 89 1.4 NW 7 11 4 6 1008.4 1008.3 24.6
23/08:30pm 26.4 31.3 24.4 89 1.4 NW 6 11 3 6 1008.1 1008.0 24.4
23/08:00pm 25.7 31.3 24.3 92 1.0 NNE 2 6 1 3 1007.7 1007.6 24.0
23/07:30pm 25.5 30.7 24.2 92 0.9 NNW 4 6 2 3 1007.0 1006.9 23.8
23/07:00pm 25.4 30.3 23.7 90 1.2 NW 4 7 2 4 1006.5 1006.4 23.6

Latest Capital City Observations: Canberra | Sydney | Melbourne | Brisbane | Adelaide | Perth | Hobart | Darwin

Other formats

Comma delimited format used in spreadsheet applications
http://www.bom.gov.au/fwo/IDD60901/IDD60901.95122.axf

JavaScript Object Notation format (JSON) in row-major order
http://www.bom.gov.au/fwo/IDD60901/IDD60901.95122.json

Data quality

Most of these data are generated automatically and are frequently updated. Quality checks on data are not normally performed. It is possible for incorrect values to appear. Refer to information at About Latest Weather Observations and please check the disclaimer before using these data.